createdAt,value
2022-11-26T00:00:22.051Z,16.9
2022-11-26T00:01:23.978Z,16.9
2022-11-26T00:02:26.841Z,17
2022-11-26T00:03:30.342Z,17
2022-11-26T00:04:33.119Z,17
2022-11-26T00:05:35.632Z,17
2022-11-26T00:06:37.818Z,16.9
2022-11-26T00:07:39.845Z,17
2022-11-26T00:08:42.422Z,17
2022-11-26T00:09:44.625Z,17
2022-11-26T00:10:47.103Z,17
2022-11-26T00:11:49.579Z,17
2022-11-26T00:12:52.058Z,17
2022-11-26T00:13:54.360Z,17.1
2022-11-26T00:14:56.902Z,17.1
2022-11-26T00:15:59.399Z,17.1
2022-11-26T00:17:02.008Z,17
2022-11-26T00:18:04.803Z,17.1
2022-11-26T00:19:06.994Z,17.1
2022-11-26T00:20:08.910Z,17.1
2022-11-26T00:21:11.115Z,17.2
2022-11-26T00:22:13.317Z,17.1
2022-11-26T00:23:15.521Z,17.1
2022-11-26T00:24:18.005Z,17.2
2022-11-26T00:25:20.480Z,17
2022-11-26T00:26:22.954Z,17.1
2022-11-26T00:27:25.438Z,17
2022-11-26T00:28:27.646Z,17
2022-11-26T00:29:30.186Z,17
2022-11-26T00:30:32.386Z,17
2022-11-26T00:31:34.990Z,16.9
2022-11-26T00:32:37.820Z,17.1
2022-11-26T00:33:40.365Z,17
2022-11-26T00:34:42.567Z,17.1
2022-11-26T00:35:44.756Z,17
2022-11-26T00:36:47.226Z,17.2
2022-11-26T00:37:49.168Z,17
2022-11-26T00:38:51.072Z,17.1
2022-11-26T00:39:53.283Z,17.2
2022-11-26T00:40:55.752Z,17.2
2022-11-26T00:41:58.235Z,17.1
2022-11-26T00:43:02.425Z,17.1
2022-11-26T00:44:04.952Z,17.2
2022-11-26T00:45:07.234Z,17.1
2022-11-26T00:46:09.576Z,17.2
2022-11-26T00:47:12.403Z,17.1
2022-11-26T00:48:14.594Z,17.2
2022-11-26T00:49:17.111Z,17.1
2022-11-26T00:50:19.577Z,17.2
2022-11-26T00:51:21.526Z,17.2
2022-11-26T00:52:23.996Z,17.1
2022-11-26T00:53:26.497Z,17.2
2022-11-26T00:54:28.962Z,17.1
2022-11-26T00:55:31.492Z,17.2
2022-11-26T00:57:38.948Z,17.1
2022-11-26T00:58:41.447Z,17.2
2022-11-26T00:59:43.925Z,17.1
2022-11-26T01:00:46.576Z,17.2
2022-11-26T01:01:49.426Z,17.3
2022-11-26T01:02:52.161Z,17.2
2022-11-26T01:03:54.652Z,17.2
2022-11-26T01:04:56.883Z,17.2
2022-11-26T01:05:59.378Z,17.2
2022-11-26T01:07:01.868Z,17.2
2022-11-26T01:08:04.060Z,17.3
2022-11-26T01:09:06.270Z,17.2
2022-11-26T01:10:08.453Z,17.3
2022-11-26T01:11:10.925Z,17.2
2022-11-26T01:12:12.848Z,17.3
2022-11-26T01:13:15.386Z,17.2
2022-11-26T01:14:17.864Z,17.2
2022-11-26T01:15:20.358Z,17.2
2022-11-26T01:16:23.052Z,17.2
2022-11-26T01:17:25.523Z,17.2
2022-11-26T01:18:27.782Z,17.2
2022-11-26T01:19:29.993Z,17.2
2022-11-26T01:20:32.485Z,17.2
2022-11-26T01:21:34.973Z,17.2
2022-11-26T01:22:36.896Z,17.3
2022-11-26T01:23:39.378Z,17.2
2022-11-26T01:24:41.352Z,17.2
2022-11-26T01:25:43.849Z,17.2
2022-11-26T01:26:45.764Z,17.2
2022-11-26T01:27:47.949Z,17.2
2022-11-26T01:28:49.882Z,17.3
2022-11-26T01:29:52.362Z,17.2
2022-11-26T01:30:54.849Z,17.3
2022-11-26T01:31:57.544Z,17.2
2022-11-26T01:33:00.307Z,17.3
2022-11-26T01:34:02.833Z,17.2
2022-11-26T01:35:05.248Z,17.3
2022-11-26T01:36:07.198Z,17.3
2022-11-26T01:37:09.667Z,17.3
2022-11-26T01:38:11.580Z,17.2
2022-11-26T01:39:13.787Z,17.3
2022-11-26T01:40:16.272Z,17.3
2022-11-26T01:41:18.495Z,17.2
2022-11-26T01:42:20.978Z,17.3
2022-11-26T01:43:23.452Z,17.3
2022-11-26T01:44:25.939Z,17.2
2022-11-26T01:45:28.000Z,17.2
2022-11-26T01:46:30.759Z,17.2
2022-11-26T01:47:33.012Z,17.2
2022-11-26T01:48:35.499Z,17.3
2022-11-26T01:49:37.998Z,17.2
2022-11-26T01:50:40.493Z,17.2
2022-11-26T01:51:43.012Z,17.3
2022-11-26T01:52:45.199Z,17.3
2022-11-26T01:53:47.393Z,17.3
2022-11-26T01:54:49.856Z,17.3
2022-11-26T01:55:52.063Z,17.3
2022-11-26T01:56:53.977Z,17.4
2022-11-26T01:57:56.463Z,17.3
2022-11-26T01:58:58.381Z,17.3
2022-11-26T02:00:00.858Z,17.3
2022-11-26T02:01:03.582Z,17.3
2022-11-26T02:02:06.540Z,17.3
2022-11-26T02:03:08.994Z,17.2
2022-11-26T02:04:11.488Z,17.3
2022-11-26T02:05:13.988Z,17.3
2022-11-26T02:06:16.201Z,17.3
2022-11-26T02:07:18.643Z,17.2
2022-11-26T02:08:20.829Z,17.3
2022-11-26T02:09:23.309Z,17.3
2022-11-26T02:10:25.806Z,17.3
2022-11-26T02:11:28.285Z,17.3
2022-11-26T02:12:30.489Z,17.3
2022-11-26T02:13:32.408Z,17.3
2022-11-26T02:14:34.615Z,17.3
2022-11-26T02:15:38.312Z,17.3
2022-11-26T02:16:40.883Z,17.3
2022-11-26T02:17:43.214Z,17.3
2022-11-26T02:18:45.765Z,17.3
2022-11-26T02:19:47.965Z,17.3
2022-11-26T02:20:50.186Z,17.3
2022-11-26T02:21:52.655Z,17.3
2022-11-26T02:22:54.886Z,17.3
2022-11-26T02:23:57.355Z,17.4
2022-11-26T02:24:59.851Z,17.3
2022-11-26T02:26:02.321Z,17.3
2022-11-26T02:27:04.523Z,17.3
2022-11-26T02:28:06.731Z,17.4
2022-11-26T02:29:08.648Z,17.3
2022-11-26T02:30:10.839Z,17.4
2022-11-26T02:31:13.442Z,17.2
2022-11-26T02:32:15.890Z,17.3
2022-11-26T02:33:18.369Z,17.3
2022-11-26T02:34:20.918Z,17.3
2022-11-26T02:35:23.101Z,17.2
2022-11-26T02:36:25.605Z,17.3
2022-11-26T02:37:27.525Z,17.3
2022-11-26T02:38:30.028Z,17.3
2022-11-26T02:39:32.250Z,17.3
2022-11-26T02:40:34.753Z,17.3
2022-11-26T02:41:37.241Z,17.3
2022-11-26T02:42:39.433Z,17.4
2022-11-26T02:43:41.909Z,17.3
2022-11-26T02:44:44.416Z,17.4
2022-11-26T02:45:47.093Z,17.3
2022-11-26T02:46:49.828Z,17.3
2022-11-26T02:47:52.317Z,17.3
2022-11-26T02:48:54.536Z,17.4
2022-11-26T02:49:57.127Z,17.3
2022-11-26T02:50:59.626Z,17.3
2022-11-26T02:52:02.147Z,17.2
2022-11-26T02:53:04.633Z,17.4
2022-11-26T02:54:06.864Z,17.4
2022-11-26T02:55:08.816Z,17.4
2022-11-26T02:56:11.307Z,17.3
2022-11-26T02:57:13.215Z,17.3
2022-11-26T02:58:15.684Z,17.4
2022-11-26T02:59:18.161Z,17.5
2022-11-26T03:00:20.643Z,17.3
2022-11-26T03:01:23.226Z,17.3
2022-11-26T03:02:25.960Z,17.4
2022-11-26T03:03:28.280Z,17.4
2022-11-26T03:04:30.679Z,17.3
2022-11-26T03:05:33.222Z,17.4
2022-11-26T03:06:35.705Z,17.4
2022-11-26T03:07:37.879Z,17.3
2022-11-26T03:08:40.603Z,17.3
2022-11-26T03:09:43.114Z,17.3
2022-11-26T03:10:45.305Z,17.4
2022-11-26T03:11:47.906Z,17.4
2022-11-26T03:12:50.474Z,17.4
2022-11-26T03:13:53.239Z,17.4
2022-11-26T03:14:55.851Z,17.3
2022-11-26T03:15:58.256Z,17.3
2022-11-26T03:17:00.941Z,17.4
2022-11-26T03:18:02.873Z,17.4
2022-11-26T03:19:05.068Z,17.3
2022-11-26T03:20:06.710Z,17.4
2022-11-26T03:21:09.234Z,17.4
2022-11-26T03:22:11.452Z,17.3
2022-11-26T03:23:13.950Z,17.4
2022-11-26T03:24:16.176Z,17.4
2022-11-26T03:25:18.692Z,17.3
2022-11-26T03:26:21.161Z,17.3
2022-11-26T03:27:23.626Z,17.4
2022-11-26T03:28:26.118Z,17.3
2022-11-26T03:29:28.584Z,17.3
2022-11-26T03:30:31.078Z,17.3
2022-11-26T03:31:33.365Z,17.4
2022-11-26T03:32:35.833Z,17.4
2022-11-26T03:33:38.045Z,17.4
2022-11-26T03:34:41.177Z,17.4
2022-11-26T03:35:43.469Z,17.4
2022-11-26T03:36:45.757Z,17.4
2022-11-26T03:37:47.421Z,17.4
2022-11-26T03:38:49.920Z,17.4
2022-11-26T03:39:52.500Z,17.4
2022-11-26T03:40:55.000Z,17.4
2022-11-26T03:41:57.211Z,17.4
2022-11-26T03:42:59.735Z,17.4
2022-11-26T03:44:02.214Z,17.3
2022-11-26T03:45:04.418Z,17.5
2022-11-26T03:46:07.001Z,17.4
2022-11-26T03:47:09.386Z,17.4
2022-11-26T03:48:11.587Z,17.5
2022-11-26T03:49:13.504Z,17.4
2022-11-26T03:50:15.729Z,17.3
2022-11-26T03:51:17.910Z,17.3
2022-11-26T03:52:20.466Z,17.5
2022-11-26T03:53:22.671Z,17.4
2022-11-26T03:54:25.162Z,17.4
2022-11-26T03:55:27.631Z,17.4
2022-11-26T03:56:30.150Z,17.3
2022-11-26T03:57:32.637Z,17.3
2022-11-26T03:58:35.122Z,17.4
2022-11-26T03:59:37.597Z,17.4
2022-11-26T04:00:39.798Z,17.3
2022-11-26T04:01:42.492Z,17.4
2022-11-26T04:02:45.020Z,17.3
2022-11-26T04:03:47.685Z,17.3
2022-11-26T04:04:50.171Z,17.4
2022-11-26T04:05:52.361Z,17.4
2022-11-26T04:06:54.303Z,17.4
2022-11-26T04:07:56.959Z,17.4
2022-11-26T04:08:59.268Z,17.4
2022-11-26T04:10:01.497Z,17.4
2022-11-26T04:11:04.020Z,17.3
2022-11-26T04:12:06.518Z,17.3
2022-11-26T04:13:08.695Z,17.4
2022-11-26T04:14:11.168Z,17.4
2022-11-26T04:15:13.382Z,17.4
2022-11-26T04:16:15.683Z,17.3
2022-11-26T04:17:18.395Z,17.3
2022-11-26T04:18:20.872Z,17.3
2022-11-26T04:19:23.355Z,17.3
2022-11-26T04:20:25.538Z,17.3
2022-11-26T04:21:27.446Z,17.3
2022-11-26T04:22:29.917Z,17.4
2022-11-26T04:23:32.459Z,17.3
2022-11-26T04:24:34.385Z,17.3
2022-11-26T04:25:37.703Z,17.3
2022-11-26T04:26:40.168Z,17.3
2022-11-26T04:27:42.681Z,17.2
2022-11-26T04:28:45.140Z,17.2
2022-11-26T04:29:47.048Z,17.3
2022-11-26T04:30:49.246Z,17.3
2022-11-26T04:31:51.905Z,17.3
2022-11-26T04:32:54.711Z,17.3
2022-11-26T04:33:56.910Z,17.3
2022-11-26T04:34:59.425Z,17.3
2022-11-26T04:36:01.892Z,17.3
2022-11-26T04:37:04.400Z,17.3
2022-11-26T04:38:06.876Z,17.2
2022-11-26T04:39:09.493Z,17.3
2022-11-26T04:40:11.422Z,17.3
2022-11-26T04:41:13.380Z,17.3
2022-11-26T04:42:15.851Z,17.3
2022-11-26T04:43:18.377Z,17.3
2022-11-26T04:44:20.579Z,17.3
2022-11-26T04:45:23.078Z,17.3
2022-11-26T04:46:25.001Z,17.3
2022-11-26T04:47:26.908Z,17.2
2022-11-26T04:48:29.189Z,17.3
2022-11-26T04:49:31.379Z,17.3
2022-11-26T04:50:33.318Z,17.3
2022-11-26T04:51:35.503Z,17.3
2022-11-26T04:52:37.991Z,17.2
2022-11-26T04:53:40.468Z,17.2
2022-11-26T04:54:43.025Z,17.3
2022-11-26T04:55:45.514Z,17.2
2022-11-26T04:56:48.013Z,17.3
2022-11-26T04:57:50.496Z,17.3
2022-11-26T04:58:52.988Z,17.2
2022-11-26T04:59:55.469Z,17.3
2022-11-26T05:00:58.021Z,17.2
2022-11-26T05:02:00.576Z,17.3
2022-11-26T05:03:03.247Z,17.3
2022-11-26T05:04:05.485Z,17.2
2022-11-26T05:05:07.403Z,17.2
2022-11-26T05:06:09.632Z,17.3
2022-11-26T05:07:12.172Z,17.3
2022-11-26T05:08:14.788Z,17.3
2022-11-26T05:09:17.019Z,17.3
2022-11-26T05:10:19.554Z,17.3
2022-11-26T05:11:21.737Z,17.2
2022-11-26T05:12:24.323Z,17.2
2022-11-26T05:13:26.803Z,17.2
2022-11-26T05:14:29.330Z,17.2
2022-11-26T05:15:31.804Z,17.3
2022-11-26T05:16:34.134Z,17.2
2022-11-26T05:17:37.091Z,17.2
2022-11-26T05:18:39.605Z,17.2
2022-11-26T05:19:41.524Z,17.2
2022-11-26T05:20:44.004Z,17.2
2022-11-26T05:21:46.470Z,17.2
2022-11-26T05:22:48.685Z,17.2
2022-11-26T05:23:50.888Z,17.2
2022-11-26T05:24:53.097Z,17.2
2022-11-26T05:25:55.654Z,17.2
2022-11-26T05:26:58.128Z,17.2
2022-11-26T05:28:00.623Z,17.2
2022-11-26T05:29:02.844Z,17.2
2022-11-26T05:30:05.151Z,17.2
2022-11-26T05:31:07.067Z,17.1
2022-11-26T05:32:09.694Z,17.2
2022-11-26T05:33:12.520Z,17.2
2022-11-26T05:34:14.458Z,17.2
2022-11-26T05:35:16.648Z,17.2
2022-11-26T05:36:19.129Z,17.2
2022-11-26T05:37:21.604Z,17.3
2022-11-26T05:38:23.512Z,17.2
2022-11-26T05:39:25.714Z,17.1
2022-11-26T05:40:27.917Z,17.3
2022-11-26T05:41:30.446Z,17.2
2022-11-26T05:42:32.372Z,17.2
2022-11-26T05:43:34.862Z,17.1
2022-11-26T05:44:38.279Z,17.1
2022-11-26T05:45:42.299Z,17.2
2022-11-26T05:46:45.085Z,17.2
2022-11-26T05:47:47.336Z,17.1
2022-11-26T05:48:49.820Z,17.2
2022-11-26T05:49:51.758Z,17.2
2022-11-26T05:50:55.168Z,17.1
2022-11-26T05:51:57.635Z,17.2
2022-11-26T05:53:00.138Z,17.2
2022-11-26T05:54:02.613Z,17.1
2022-11-26T05:55:05.093Z,17.2
2022-11-26T05:56:07.283Z,17.1
2022-11-26T05:57:09.847Z,17.1
2022-11-26T05:58:12.040Z,17.1
2022-11-26T05:59:14.545Z,17.2
2022-11-26T06:00:16.740Z,17.2
2022-11-26T06:01:18.980Z,17.1
2022-11-26T06:02:21.863Z,17.1
2022-11-26T06:03:25.110Z,17.2
2022-11-26T06:04:28.008Z,17.2
2022-11-26T06:05:30.211Z,17.1
2022-11-26T06:06:32.412Z,17.1
2022-11-26T06:07:34.484Z,17.1
2022-11-26T06:08:40.493Z,17.1
2022-11-26T06:09:42.687Z,17.2
2022-11-26T06:10:45.161Z,17.2
2022-11-26T06:11:47.104Z,17.2
2022-11-26T06:12:49.629Z,17.1
2022-11-26T06:13:52.112Z,17.1
2022-11-26T06:14:54.610Z,17.1
2022-11-26T06:15:57.100Z,17.2
2022-11-26T06:16:59.845Z,17.1
2022-11-26T06:18:02.663Z,17.2
2022-11-26T06:19:04.881Z,17
2022-11-26T06:20:07.354Z,17.1
2022-11-26T06:21:09.817Z,17.2
2022-11-26T06:22:12.028Z,17.1
2022-11-26T06:23:13.978Z,17.2
2022-11-26T06:24:16.163Z,17.1
2022-11-26T06:25:18.061Z,17.2
2022-11-26T06:26:20.542Z,17.2
2022-11-26T06:27:23.014Z,17.1
2022-11-26T06:28:25.578Z,17.1
2022-11-26T06:29:28.897Z,17
2022-11-26T06:30:31.415Z,17.1
2022-11-26T06:31:34.095Z,17.1
2022-11-26T06:32:36.940Z,17.2
2022-11-26T06:33:39.411Z,17.1
2022-11-26T06:35:46.589Z,17.2
2022-11-26T06:36:49.091Z,17.1
2022-11-26T06:37:51.549Z,17.1
2022-11-26T06:38:53.467Z,17.1
2022-11-26T06:39:55.935Z,17.1
2022-11-26T06:40:57.842Z,17.1
2022-11-26T06:42:00.310Z,17.1
2022-11-26T06:43:02.793Z,17.1
2022-11-26T06:44:05.325Z,17.1
2022-11-26T06:45:07.826Z,17.2
2022-11-26T06:46:10.526Z,17.1
2022-11-26T06:47:13.299Z,17.1
2022-11-26T06:48:15.255Z,17.1
2022-11-26T06:49:17.722Z,17.1
2022-11-26T06:50:19.917Z,17.1
2022-11-26T06:51:22.104Z,17.1
2022-11-26T06:52:24.312Z,17.1
2022-11-26T06:53:26.519Z,17.1
2022-11-26T06:54:28.427Z,17.1
2022-11-26T06:55:30.911Z,17.1
2022-11-26T06:56:32.837Z,17.2
2022-11-26T06:57:35.026Z,17.1
2022-11-26T06:58:37.532Z,17.1
2022-11-26T06:59:40.124Z,17.2
2022-11-26T07:00:42.603Z,17.1
2022-11-26T07:01:44.395Z,17.1
2022-11-26T07:02:47.079Z,17.1
2022-11-26T07:03:49.923Z,17.1
2022-11-26T07:04:52.399Z,17
2022-11-26T07:05:54.891Z,17.1
2022-11-26T07:06:57.373Z,17
2022-11-26T07:07:59.856Z,17
2022-11-26T07:09:02.343Z,17.1
2022-11-26T07:10:04.821Z,17.1
2022-11-26T07:11:07.301Z,17.1
2022-11-26T07:12:09.493Z,17.1
2022-11-26T07:13:11.987Z,17.1
2022-11-26T07:14:14.474Z,17
2022-11-26T07:15:16.737Z,17
2022-11-26T07:16:19.324Z,17
2022-11-26T07:17:22.021Z,17.1
2022-11-26T07:18:24.227Z,17.1
2022-11-26T07:19:26.725Z,17.1
2022-11-26T07:20:29.265Z,17.1
2022-11-26T07:21:31.600Z,17.1
2022-11-26T07:22:34.079Z,17.1
2022-11-26T07:23:35.995Z,17.1
2022-11-26T07:24:38.975Z,17.1
2022-11-26T07:25:42.623Z,17
2022-11-26T07:26:44.292Z,17.1
2022-11-26T07:27:46.767Z,17.1
2022-11-26T07:28:49.374Z,17.1
2022-11-26T07:29:51.875Z,17.1
2022-11-26T07:30:54.445Z,17.1
2022-11-26T07:31:57.317Z,17
2022-11-26T07:32:59.889Z,17.1
2022-11-26T07:34:02.374Z,17.1
2022-11-26T07:35:04.611Z,17.1
2022-11-26T07:36:06.546Z,17.1
2022-11-26T07:37:09.025Z,17.1
2022-11-26T07:38:10.935Z,17.1
2022-11-26T07:39:12.844Z,17.2
2022-11-26T07:40:15.345Z,17
2022-11-26T07:41:17.281Z,17
2022-11-26T07:42:19.810Z,17
2022-11-26T07:43:22.047Z,17.1
2022-11-26T07:44:24.550Z,17.1
2022-11-26T07:45:27.015Z,17
2022-11-26T07:46:29.714Z,17
2022-11-26T07:47:31.700Z,17.1
2022-11-26T07:48:34.225Z,17
2022-11-26T07:49:36.424Z,17.1
2022-11-26T07:50:38.932Z,17.1
2022-11-26T07:51:41.135Z,17.1
2022-11-26T07:52:43.349Z,17
2022-11-26T07:53:45.277Z,17.1
2022-11-26T07:54:47.769Z,17.1
2022-11-26T07:55:49.958Z,17.1
2022-11-26T07:56:52.198Z,17
2022-11-26T07:57:54.387Z,17.1
2022-11-26T07:58:56.871Z,17.1
2022-11-26T07:59:59.354Z,17.1
2022-11-26T08:01:01.692Z,17.2
2022-11-26T08:02:04.592Z,17.1
2022-11-26T08:03:07.046Z,17.1
2022-11-26T08:04:08.971Z,17
2022-11-26T08:05:11.178Z,17.1
2022-11-26T08:06:13.415Z,17.1
2022-11-26T08:08:20.880Z,17
2022-11-26T08:09:23.095Z,17
2022-11-26T08:10:25.283Z,17.1
2022-11-26T08:11:27.197Z,17.1
2022-11-26T08:12:29.433Z,17
2022-11-26T08:13:31.930Z,17.1
2022-11-26T08:14:34.403Z,17
2022-11-26T08:15:37.285Z,17.1
2022-11-26T08:16:39.406Z,17.1
2022-11-26T08:17:42.109Z,17.1
2022-11-26T08:18:44.305Z,17.1
2022-11-26T08:19:46.263Z,17.1
2022-11-26T08:20:48.471Z,17
2022-11-26T08:21:50.990Z,17.1
2022-11-26T08:22:53.213Z,17
2022-11-26T08:23:55.700Z,17
2022-11-26T08:24:58.174Z,17.1
2022-11-26T08:27:05.092Z,17
2022-11-26T08:28:07.582Z,17.1
2022-11-26T08:29:09.504Z,17.1
2022-11-26T08:30:11.429Z,17.1
2022-11-26T08:31:13.781Z,17.1
2022-11-26T08:32:16.550Z,17
2022-11-26T08:33:19.083Z,17
2022-11-26T08:34:21.046Z,17.1
2022-11-26T08:36:28.515Z,17
2022-11-26T08:37:31.033Z,17
2022-11-26T08:38:33.230Z,17
2022-11-26T08:39:35.450Z,17.1
2022-11-26T08:40:37.646Z,17.1
2022-11-26T08:41:39.878Z,17.1
2022-11-26T08:42:42.071Z,17.1
2022-11-26T08:44:49.272Z,17
2022-11-26T08:45:51.572Z,17.1
2022-11-26T08:46:54.185Z,17
2022-11-26T08:47:55.851Z,17.1
2022-11-26T08:48:58.111Z,17.1
2022-11-26T08:50:00.605Z,17.1
2022-11-26T08:51:02.840Z,17
2022-11-26T08:52:05.066Z,17
2022-11-26T08:53:07.583Z,17
2022-11-26T08:54:10.117Z,17
2022-11-26T08:55:12.382Z,17.1
2022-11-26T08:56:14.602Z,17
2022-11-26T08:57:16.832Z,17.1
2022-11-26T08:58:19.339Z,17
2022-11-26T08:59:21.821Z,17
2022-11-26T09:00:24.419Z,17
2022-11-26T09:01:26.546Z,17.1
2022-11-26T09:02:29.096Z,17
2022-11-26T09:03:31.576Z,17
2022-11-26T09:04:34.167Z,17.1
2022-11-26T09:05:36.651Z,17
2022-11-26T09:06:38.884Z,17
2022-11-26T09:08:46.368Z,17
2022-11-26T09:09:48.567Z,17
2022-11-26T09:10:50.475Z,17.1
2022-11-26T09:11:52.705Z,17
2022-11-26T09:12:55.210Z,17.1
2022-11-26T09:13:57.701Z,17
2022-11-26T09:15:00.395Z,17.1
2022-11-26T09:16:03.294Z,17.1
2022-11-26T09:17:05.526Z,17.1
2022-11-26T09:18:08.161Z,17
2022-11-26T09:19:10.639Z,17.2
2022-11-26T09:20:13.191Z,17
2022-11-26T09:21:15.667Z,17
2022-11-26T09:22:17.904Z,17
2022-11-26T09:23:20.103Z,17
2022-11-26T09:24:22.615Z,17
2022-11-26T09:25:25.132Z,17
2022-11-26T09:26:27.614Z,17.1
2022-11-26T09:27:29.535Z,17
2022-11-26T09:28:31.745Z,17
2022-11-26T09:29:34.227Z,17.1
2022-11-26T09:30:36.718Z,17.1
2022-11-26T09:32:44.283Z,17.1
2022-11-26T09:33:46.902Z,17
2022-11-26T09:34:49.504Z,17
2022-11-26T09:35:51.797Z,17
2022-11-26T09:36:53.999Z,17
2022-11-26T09:37:56.227Z,17.1
2022-11-26T09:38:58.143Z,17.1
2022-11-26T09:40:00.679Z,17
2022-11-26T09:41:02.887Z,17
2022-11-26T09:42:05.403Z,17
2022-11-26T09:43:07.621Z,17.1
2022-11-26T09:44:09.827Z,17
2022-11-26T09:45:12.302Z,17
2022-11-26T09:46:14.930Z,17.1
2022-11-26T09:47:17.394Z,17
2022-11-26T09:48:19.888Z,17
2022-11-26T09:49:22.373Z,17.1
2022-11-26T09:50:24.571Z,17.1
2022-11-26T09:51:27.108Z,17
2022-11-26T09:52:29.047Z,16.9
2022-11-26T09:53:31.553Z,17
2022-11-26T09:54:33.767Z,17.1
2022-11-26T09:55:36.005Z,17
2022-11-26T09:56:38.352Z,16.9
2022-11-26T09:57:40.829Z,17
2022-11-26T09:58:43.318Z,17
2022-11-26T09:59:45.245Z,17
2022-11-26T10:00:47.814Z,17
2022-11-26T10:01:50.319Z,17
2022-11-26T10:02:52.409Z,17.1
2022-11-26T10:03:54.897Z,17.1
2022-11-26T10:04:57.103Z,17.1
2022-11-26T10:05:59.305Z,17.1
2022-11-26T10:07:01.866Z,17
2022-11-26T10:08:03.795Z,16.9
2022-11-26T10:09:06.317Z,17.1
2022-11-26T10:10:08.713Z,16.9
2022-11-26T10:11:10.418Z,17
2022-11-26T10:13:20.212Z,16.9
2022-11-26T10:14:22.749Z,17
2022-11-26T10:15:24.966Z,17
2022-11-26T10:16:27.635Z,16.9
2022-11-26T10:17:29.747Z,17
2022-11-26T10:18:31.944Z,17
2022-11-26T10:19:33.880Z,17
2022-11-26T10:20:36.088Z,17
2022-11-26T10:22:43.276Z,17
2022-11-26T10:23:45.854Z,17
2022-11-26T10:24:47.896Z,17
2022-11-26T10:25:50.391Z,17
2022-11-26T10:26:52.903Z,16.9
2022-11-26T10:27:54.545Z,17
2022-11-26T10:28:57.021Z,17
2022-11-26T10:29:58.932Z,17
2022-11-26T10:31:00.859Z,17
2022-11-26T10:32:03.466Z,17
2022-11-26T10:33:05.507Z,17
2022-11-26T10:34:07.997Z,17
2022-11-26T10:35:10.196Z,17
2022-11-26T10:36:12.154Z,17
2022-11-26T10:37:14.634Z,17
2022-11-26T10:38:16.575Z,17
2022-11-26T10:39:19.099Z,17
2022-11-26T10:40:21.093Z,17
2022-11-26T10:41:23.585Z,17
2022-11-26T10:42:25.832Z,17
2022-11-26T10:43:28.312Z,16.9
2022-11-26T10:44:30.533Z,16.9
2022-11-26T10:45:33.138Z,16.9
2022-11-26T10:46:35.898Z,17
2022-11-26T10:47:38.579Z,17
2022-11-26T10:48:41.585Z,17
2022-11-26T10:49:44.072Z,17
2022-11-26T10:50:48.595Z,17
2022-11-26T10:51:51.166Z,17
2022-11-26T10:52:53.673Z,16.9
2022-11-26T10:53:56.164Z,17
2022-11-26T10:54:58.781Z,17
2022-11-26T10:56:01.018Z,17
2022-11-26T10:57:02.657Z,17
2022-11-26T10:58:04.614Z,17
2022-11-26T10:59:07.129Z,17
2022-11-26T11:00:09.616Z,17
2022-11-26T11:01:11.956Z,17
2022-11-26T11:02:14.362Z,17
2022-11-26T11:03:17.042Z,17
2022-11-26T11:04:19.238Z,17.1
2022-11-26T11:05:21.179Z,17
2022-11-26T11:06:23.661Z,17
2022-11-26T11:07:26.019Z,17
2022-11-26T11:08:28.907Z,16.9
2022-11-26T11:09:30.873Z,17
2022-11-26T11:10:33.507Z,17
2022-11-26T11:11:36.035Z,17
2022-11-26T11:12:38.234Z,17.1
2022-11-26T11:13:40.771Z,17
2022-11-26T11:14:44.615Z,17.1
2022-11-26T11:15:48.796Z,17
2022-11-26T11:16:51.419Z,16.9
2022-11-26T11:17:53.389Z,16.9
2022-11-26T11:18:55.584Z,17
2022-11-26T11:19:57.961Z,17
2022-11-26T11:21:00.450Z,17
2022-11-26T11:22:02.381Z,17
2022-11-26T11:23:05.069Z,16.9
2022-11-26T11:24:09.696Z,17
2022-11-26T11:25:12.206Z,17
2022-11-26T11:26:14.744Z,17
2022-11-26T11:27:17.365Z,17
2022-11-26T11:28:19.570Z,17
2022-11-26T11:29:22.081Z,17
2022-11-26T11:30:24.723Z,17
2022-11-26T11:31:27.372Z,17
2022-11-26T11:32:29.685Z,17
2022-11-26T11:33:31.600Z,16.9
2022-11-26T11:34:34.089Z,17
2022-11-26T11:35:36.582Z,16.9
2022-11-26T11:36:38.524Z,17
2022-11-26T11:37:41.015Z,17
2022-11-26T11:38:43.221Z,16.9
2022-11-26T11:39:45.431Z,17
2022-11-26T11:40:47.626Z,17
2022-11-26T11:41:50.269Z,16.9
2022-11-26T11:42:52.766Z,17
2022-11-26T11:43:54.982Z,16.9
2022-11-26T11:44:57.491Z,17
2022-11-26T11:46:00.043Z,16.9
2022-11-26T11:47:02.756Z,17
2022-11-26T11:48:05.241Z,17
2022-11-26T11:49:07.444Z,17.1
2022-11-26T11:50:09.946Z,16.9
2022-11-26T11:51:12.158Z,16.9
2022-11-26T11:52:14.141Z,17
2022-11-26T11:53:16.330Z,16.9
2022-11-26T11:54:18.834Z,16.9
2022-11-26T11:55:21.306Z,16.9
2022-11-26T11:56:22.957Z,17
2022-11-26T11:57:25.516Z,16.9
2022-11-26T11:58:28.021Z,17
2022-11-26T11:59:30.244Z,17
2022-11-26T12:00:32.483Z,17
2022-11-26T12:01:35.086Z,17
2022-11-26T12:02:37.982Z,16.9
2022-11-26T12:03:40.467Z,17
2022-11-26T12:04:43.001Z,16.9
2022-11-26T12:05:45.817Z,17
2022-11-26T12:06:48.043Z,17
2022-11-26T12:07:50.054Z,17
2022-11-26T12:08:52.514Z,16.9
2022-11-26T12:09:54.742Z,16.9
2022-11-26T12:10:56.956Z,16.9
2022-11-26T12:11:59.470Z,16.9
2022-11-26T12:13:02.013Z,16.9
2022-11-26T12:14:04.244Z,17
2022-11-26T12:15:06.425Z,17
2022-11-26T12:16:08.846Z,17
2022-11-26T12:17:11.190Z,17
2022-11-26T12:18:13.421Z,16.9
2022-11-26T12:19:15.361Z,17
2022-11-26T12:20:17.600Z,16.9
2022-11-26T12:21:20.162Z,16.9
2022-11-26T12:22:22.681Z,16.9
2022-11-26T12:23:25.472Z,17
2022-11-26T12:24:27.960Z,16.9
2022-11-26T12:26:35.149Z,16.9
2022-11-26T12:27:37.637Z,16.9
2022-11-26T12:28:40.223Z,16.9
2022-11-26T12:29:42.739Z,16.9
2022-11-26T12:30:44.694Z,16.9
2022-11-26T12:31:47.110Z,16.9
2022-11-26T12:32:49.856Z,16.9
2022-11-26T12:33:51.798Z,17.1
2022-11-26T12:34:54.284Z,16.9
2022-11-26T12:35:56.226Z,16.9
2022-11-26T12:36:58.434Z,16.9
2022-11-26T12:38:00.090Z,16.9
2022-11-26T12:39:02.292Z,17
2022-11-26T12:40:04.787Z,16.9
2022-11-26T12:41:07.005Z,17
2022-11-26T12:42:08.921Z,17
2022-11-26T12:43:11.137Z,17
2022-11-26T12:44:13.708Z,16.9
2022-11-26T12:45:18.129Z,16.9
2022-11-26T12:46:20.734Z,16.9
2022-11-26T12:47:23.216Z,17
2022-11-26T12:48:25.769Z,16.9
2022-11-26T12:49:27.970Z,16.9
2022-11-26T12:50:29.624Z,17
2022-11-26T12:51:36.163Z,17
2022-11-26T12:52:38.395Z,16.9
2022-11-26T12:53:40.327Z,16.8
2022-11-26T12:54:42.706Z,16.9
2022-11-26T12:55:44.964Z,17
2022-11-26T12:56:47.190Z,16.9
2022-11-26T12:57:49.664Z,16.9
2022-11-26T12:58:52.166Z,17
2022-11-26T12:59:54.716Z,16.9
2022-11-26T13:00:57.368Z,16.9
2022-11-26T13:02:00.323Z,17
2022-11-26T13:03:02.811Z,16.9
2022-11-26T13:05:09.988Z,16.9
2022-11-26T13:06:12.521Z,16.9
2022-11-26T13:07:14.579Z,17
2022-11-26T13:08:16.743Z,16.9
2022-11-26T13:09:19.236Z,16.9
2022-11-26T13:10:21.155Z,16.9
2022-11-26T13:11:23.654Z,16.9
2022-11-26T13:12:26.139Z,16.9
2022-11-26T13:13:28.608Z,16.9
2022-11-26T13:14:30.793Z,16.9
2022-11-26T13:15:33.121Z,17
2022-11-26T13:16:35.638Z,16.9
2022-11-26T13:17:38.379Z,16.9
2022-11-26T13:18:40.903Z,16.9
2022-11-26T13:19:43.105Z,17
2022-11-26T13:20:45.363Z,17
2022-11-26T13:21:47.839Z,16.9
2022-11-26T13:22:50.064Z,16.9
2022-11-26T13:23:52.258Z,16.9
2022-11-26T13:24:54.749Z,16.9
2022-11-26T13:25:57.218Z,16.9
2022-11-26T13:26:59.431Z,16.9
2022-11-26T13:28:33.760Z,17
2022-11-26T13:29:35.967Z,17
2022-11-26T13:30:37.953Z,16.9
2022-11-26T13:31:40.002Z,17
2022-11-26T13:32:42.448Z,16.9
2022-11-26T13:33:44.968Z,16.9
2022-11-26T13:34:47.456Z,17
2022-11-26T13:35:49.662Z,16.9
2022-11-26T13:36:52.156Z,17
2022-11-26T13:37:54.733Z,16.9
2022-11-26T13:38:56.965Z,16.9
2022-11-26T13:39:59.333Z,16.9
2022-11-26T13:41:01.819Z,17
2022-11-26T13:42:04.026Z,17
2022-11-26T13:43:06.229Z,16.9
2022-11-26T13:44:08.442Z,17
2022-11-26T13:45:10.916Z,16.9
2022-11-26T13:47:18.205Z,16.9
2022-11-26T13:48:20.693Z,16.9
2022-11-26T13:49:22.638Z,16.9
2022-11-26T13:50:24.854Z,16.8
2022-11-26T13:51:27.057Z,16.9
2022-11-26T13:52:29.550Z,16.9
2022-11-26T13:53:32.027Z,17
2022-11-26T13:54:34.234Z,16.9
2022-11-26T13:55:36.436Z,16.9
2022-11-26T13:56:38.917Z,16.9
2022-11-26T13:57:41.120Z,17
2022-11-26T13:58:43.030Z,17.1
2022-11-26T13:59:45.308Z,17
2022-11-26T14:00:47.898Z,16.9
2022-11-26T14:01:50.855Z,16.9
2022-11-26T14:02:53.479Z,17
2022-11-26T14:03:55.730Z,16.9
2022-11-26T14:04:58.237Z,17
2022-11-26T14:07:05.467Z,17
2022-11-26T14:08:07.694Z,16.9
2022-11-26T14:09:09.911Z,16.9
2022-11-26T14:10:12.122Z,17
2022-11-26T14:12:19.303Z,16.9
2022-11-26T14:13:21.805Z,17
2022-11-26T14:14:24.006Z,16.9
2022-11-26T14:15:26.271Z,16.9
2022-11-26T14:16:28.883Z,16.9
2022-11-26T14:18:36.834Z,17
2022-11-26T14:19:39.045Z,16.9
2022-11-26T14:20:41.279Z,17
2022-11-26T14:21:43.511Z,16.9
2022-11-26T14:22:45.982Z,16.9
2022-11-26T14:23:47.630Z,16.8